Hovedside
METAR-TAF:

METAR-TAF

Lufthavner :

Åbo lufthavn

Åbo, Finland

breddegrad: 60-31N, lengdegrad: 022-16E, høyde over havet: 49 m

Gjeldene værobservasjon

Denne rapporten ble laget for 20 minutter siden, klokken 14:20 UTC
Vind 9 kt fra Øst, skiftende mellom Nordøst og Øst-sørøst
Temperatur 30°C
Luftfuktighet 25%
Trykk 1012 hPa
Sikt 10 km eller mer

METAR: EFTU 181420Z AUTO 09009KT 040V120 9999 FEW086/// 30/08 Q1012

Tid: 17:40 (14:40 UTC)

Varsel

Denne rapporten ble laget for 3 timer og 5 minutter siden, klokken 11:35 UTC
Varsel gyldig fra 18. klokken 12 UTC til 19. klokken 12 UTC
Vind 12 kt fra Øst
Sikt 10 km eller mer
ingen skyer under 1500 m og ingen bygeskyer
Blir
fra 18. klokken 15 UTC til 18. klokken 17 UTC
Vind 4 kt fra Sør
Blir
fra 19. klokken 07 UTC til 19. klokken 09 UTC
Vind 10 kt fra Øst

TAF: EFTU 181135Z 1812/1912 10012KT CAVOK BECMG 1815/1817 19004KT BECMG 1907/1909 10010KT

Værobservasjoner og værvarsel for over 4000 flyplasser (METAR- og TAF-rapporter).

Tilgjengelige stasjoner er representert av de røde og gule prikkene på kartet.

Hold musepekeren over prikken for å se navnet på stasjonen.

Klikk så for å se værobservasjoner og -varsler.

For å forandre kartet kan du klikke på den grønne knappen med svart kryss for å zoome inn, på den grønne knappen med strek for å zoome ut, eller på de grønne pilene for å se tilstøtende kart.


METAR-TAF: